Time;durP1;ratioP1;P1;durP2;ratioP2;P2;SDS_P1;SDS_P2;PMS_P1;PMS_P2;Temp;Humidity;BMP_temperature;BMP_pressure;BME280_temperature;BME280_humidity;BME280_pressure;Samples;Min_cycle;Max_cycle;Signal;HPM_P1;HPM_P2
2022/02/08 00:02:25;;;;;;;1.45;0.20;;;24.50;95.00;;;;;;4964201;28;20085;-74
2022/02/08 00:04:52;;;;;;;3.08;1.60;;;24.60;94.90;;;;;;4973734;28;20050;-75
2022/02/08 00:07:20;;;;;;;2.15;0.20;;;24.50;95.00;;;;;;4973477;28;20046;-73
2022/02/08 00:09:47;;;;;;;4.38;0.30;;;24.70;94.70;;;;;;4975591;28;20115;-73
2022/02/08 00:12:15;;;;;;;4.13;0.93;;;25.00;94.50;;;;;;4976193;28;20101;-74
2022/02/08 00:14:43;;;;;;;5.47;0.28;;;25.20;94.10;;;;;;4975917;28;20027;-73
2022/02/08 00:17:10;;;;;;;2.50;0.20;;;25.40;93.40;;;;;;4973665;28;20063;-75
2022/02/08 00:19:38;;;;;;;2.95;0.73;;;25.50;93.80;;;;;;4971767;28;20042;-73
2022/02/08 00:22:05;;;;;;;1.70;0.40;;;25.70;92.80;;;;;;4973402;28;20030;-75
2022/02/08 00:24:33;;;;;;;2.67;0.40;;;25.80;92.60;;;;;;4967489;28;20117;-74
2022/02/08 00:27:01;;;;;;;6.18;0.20;;;25.70;92.80;;;;;;4970813;28;20050;-74
2022/02/08 00:29:29;;;;;;;1.30;0.30;;;25.70;92.80;;;;;;4973105;28;20030;-75
2022/02/08 00:31:56;;;;;;;1.77;0.45;;;25.50;91.80;;;;;;4973149;28;20023;-74
2022/02/08 00:34:23;;;;;;;1.98;0.30;;;25.90;92.40;;;;;;4975167;28;21709;-74
2022/02/08 00:36:51;;;;;;;2.40;1.30;;;26.30;92.20;;;;;;4969850;28;20493;-74
2022/02/08 00:39:18;;;;;;;3.38;0.30;;;26.40;92.70;;;;;;4972114;28;20729;-75
2022/02/08 00:41:45;;;;;;;5.25;0.60;;;26.30;91.80;;;;;;4974346;28;20037;-74
2022/02/08 00:44:18;;;;;;;1.45;0.30;;;26.50;92.30;;;;;;4976022;28;20034;-71
2022/02/08 00:47:00;;;;;;;3.28;0.20;;;26.90;93.00;;;;;;4971694;28;20110;-72
2022/02/08 00:49:33;;;;;;;2.13;0.30;;;27.00;91.90;;;;;;4971877;28;20030;-73
2022/02/08 00:52:07;;;;;;;1.77;0.22;;;27.70;91.70;;;;;;4965252;28;20035;-73
2022/02/08 00:54:37;;;;;;;2.95;0.80;;;28.10;90.60;;;;;;4968235;28;20063;-72
2022/02/08 00:57:04;;;;;;;1.17;0.20;;;28.30;92.00;;;;;;4971098;28;20489;-72
2022/02/08 00:59:32;;;;;;;1.92;0.22;;;28.60;90.30;;;;;;4973163;28;20116;-73
2022/02/08 01:01:59;;;;;;;4.00;0.40;;;28.70;90.50;;;;;;4973791;28;20089;-72
2022/02/08 01:04:26;;;;;;;2.17;0.52;;;28.80;89.10;;;;;;4974065;28;20025;-72
2022/02/08 01:06:55;;;;;;;1.17;0.30;;;29.20;91.30;;;;;;4973635;28;20058;-73
2022/02/08 01:09:37;;;;;;;2.20;0.50;;;29.60;91.90;;;;;;4976057;28;20025;-72
2022/02/08 01:12:04;;;;;;;1.00;0.20;;;29.90;91.10;;;;;;4953728;28;20081;-74
2022/02/08 01:14:37;;;;;;;1.98;0.30;;;30.00;88.40;;;;;;4972335;28;20027;-73
2022/02/08 01:17:06;;;;;;;0.98;0.30;;;30.20;88.40;;;;;;4971434;28;20124;-75
2022/02/08 01:19:36;;;;;;;1.38;0.50;;;30.40;86.80;;;;;;4972703;28;20039;-73
2022/02/08 01:22:04;;;;;;;4.20;0.63;;;30.20;87.50;;;;;;4971640;28;20380;-72
2022/02/08 01:24:31;;;;;;;1.65;0.30;;;29.80;85.20;;;;;;4972992;28;20024;-73
2022/02/08 01:27:04;;;;;;;1.73;0.22;;;29.30;86.40;;;;;;4972406;28;20114;-72
2022/02/08 01:38:11;;;;;;;2.10;0.20;;;28.00;88.30;;;;;;4965676;28;20043;-72
2022/02/08 01:45:43;;;;;;;1.20;0.40;;;27.40;90.30;;;;;;4967877;28;20049;-73
2022/02/08 01:48:15;;;;;;;0.80;0.20;;;27.30;90.10;;;;;;4970642;28;20054;-74
2022/02/08 01:50:43;;;;;;;2.00;0.30;;;27.20;90.60;;;;;;4969661;28;20035;-75
2022/02/08 01:53:10;;;;;;;3.38;0.30;;;27.10;90.00;;;;;;4970690;28;20109;-72
2022/02/08 01:55:39;;;;;;;1.42;0.60;;;27.70;89.20;;;;;;4968310;28;20023;-72
2022/02/08 01:58:07;;;;;;;0.82;0.20;;;28.20;90.60;;;;;;4969268;28;20030;-73
2022/02/08 02:00:34;;;;;;;1.55;0.40;;;28.50;90.40;;;;;;4969674;28;20401;-72
2022/02/08 02:03:02;;;;;;;1.30;0.22;;;28.80;90.40;;;;;;4970814;28;20027;-72
2022/02/08 02:05:30;;;;;;;3.17;0.32;;;29.60;90.70;;;;;;4969369;28;20477;-74
2022/02/08 02:07:58;;;;;;;4.68;0.73;;;30.40;88.50;;;;;;4966014;28;20059;-72
2022/02/08 02:10:26;;;;;;;2.03;0.30;;;30.90;86.70;;;;;;4969645;28;20026;-72
2022/02/08 02:13:13;;;;;;;2.20;0.40;;;31.50;87.90;;;;;;4969330;28;20033;-74
2022/02/08 02:15:40;;;;;;;1.55;0.35;;;31.50;83.10;;;;;;4968334;28;20035;-73
2022/02/08 02:18:08;;;;;;;2.63;0.30;;;31.30;83.00;;;;;;4971653;28;20042;-73
2022/02/08 02:20:35;;;;;;;1.90;0.35;;;31.00;83.00;;;;;;4967823;28;20470;-74
2022/02/08 02:23:02;;;;;;;3.17;0.50;;;30.60;81.40;;;;;;4972670;28;20031;-74
2022/02/08 02:25:32;;;;;;;1.58;0.20;;;30.70;81.00;;;;;;4970213;28;20043;-73
2022/02/08 02:28:04;;;;;;;2.65;0.40;;;30.40;81.90;;;;;;4970522;28;20433;-73
2022/02/08 02:30:33;;;;;;;1.30;0.30;;;30.80;87.20;;;;;;4968500;28;20030;-73
2022/02/08 02:33:02;;;;;;;0.80;0.38;;;30.40;83.50;;;;;;4971029;28;20031;-73
2022/02/08 02:35:31;;;;;;;2.53;0.35;;;30.00;86.50;;;;;;4971108;28;20022;-74
2022/02/08 02:38:00;;;;;;;2.05;0.30;;;29.70;84.30;;;;;;4971340;28;20077;-71
2022/02/08 02:40:30;;;;;;;1.17;0.30;;;29.80;86.60;;;;;;4953440;28;20026;-74
2022/02/08 02:42:58;;;;;;;2.72;0.75;;;30.20;85.50;;;;;;4953675;28;20489;-73
2022/02/08 02:45:26;;;;;;;1.20;0.38;;;30.50;82.00;;;;;;4969084;28;20038;-74
2022/02/08 02:47:55;;;;;;;1.55;0.28;;;30.30;80.90;;;;;;4968628;28;20109;-73
2022/02/08 02:50:24;;;;;;;3.08;1.00;;;30.20;82.40;;;;;;4955757;28;20363;-72
2022/02/08 02:52:52;;;;;;;1.67;0.43;;;30.30;82.60;;;;;;4959456;28;20031;-73
2022/02/08 02:55:20;;;;;;;1.08;0.40;;;30.30;82.30;;;;;;4970025;28;20046;-72
2022/02/08 02:57:52;;;;;;;1.90;0.20;;;30.50;82.20;;;;;;4969790;28;20477;-73
2022/02/08 03:00:39;;;;;;;2.67;0.28;;;30.70;81.80;;;;;;4967510;28;20039;-73
2022/02/08 03:03:31;;;;;;;0.88;0.40;;;31.20;84.60;;;;;;4966709;28;20027;-73
2022/02/08 03:19:42;;;;;;;2.30;1.17;;;29.30;82.90;;;;;;4954901;28;20061;-74
2022/02/08 03:22:09;;;;;;;0.60;0.35;;;29.10;84.30;;;;;;4958613;28;20026;-73
2022/02/08 03:24:37;;;;;;;2.45;0.38;;;28.60;84.80;;;;;;4968143;28;20425;-74
2022/02/08 03:27:04;;;;;;;3.58;0.50;;;28.40;84.30;;;;;;4970525;28;20038;-73
2022/02/08 03:29:32;;;;;;;4.53;0.60;;;28.20;85.00;;;;;;4969792;28;20046;-74
2022/02/08 03:31:59;;;;;;;3.28;0.40;;;27.80;85.50;;;;;;4948150;28;20090;-74
2022/02/08 03:34:26;;;;;;;0.90;0.35;;;27.60;86.80;;;;;;4964107;28;20910;-75
2022/02/08 03:36:54;;;;;;;5.93;0.75;;;27.60;86.90;;;;;;4968518;28;20031;-73
2022/02/08 03:39:31;;;;;;;2.38;0.32;;;27.60;86.90;;;;;;4974787;28;20034;-74
2022/02/08 03:42:07;;;;;;;2.83;0.50;;;27.60;86.60;;;;;;4959159;28;20034;-72
2022/02/08 03:44:35;;;;;;;2.58;0.50;;;27.80;86.50;;;;;;4967986;28;20038;-73
2022/02/08 03:47:06;;;;;;;1.35;0.57;;;28.60;87.20;;;;;;4966744;28;20049;-73
2022/02/08 03:49:34;;;;;;;0.95;0.20;;;29.30;84.10;;;;;;4969952;28;20109;-73
2022/02/08 03:52:05;;;;;;;2.53;0.47;;;29.90;83.50;;;;;;4968802;28;20038;-72
2022/02/08 03:54:35;;;;;;;3.17;0.70;;;30.60;84.20;;;;;;4962887;28;20027;-72
2022/02/08 03:57:05;;;;;;;5.28;0.85;;;31.00;82.70;;;;;;4965483;28;20548;-73
2022/02/08 03:59:32;;;;;;;5.82;0.88;;;31.20;81.20;;;;;;4965236;28;20046;-74
2022/02/08 04:02:13;;;;;;;2.28;0.80;;;31.10;83.20;;;;;;4958568;28;20042;-73
2022/02/08 04:07:22;;;;;;;2.38;0.73;;;30.00;82.80;;;;;;4959796;28;20062;-73
2022/02/08 04:09:52;;;;;;;2.45;0.60;;;30.20;82.70;;;;;;4965495;28;20030;-72
2022/02/08 04:12:27;;;;;;;2.92;0.60;;;30.10;81.30;;;;;;4963161;28;20346;-75
2022/02/08 04:15:14;;;;;;;5.10;0.88;;;29.90;83.00;;;;;;4965845;28;20035;-75
2022/02/08 04:36:31;;;;;;;1.00;0.40;;;29.90;82.20;;;;;;4967553;28;20038;-75
2022/02/08 04:39:50;;;;;;;3.50;0.93;;;29.70;83.20;;;;;;4962448;28;20046;-74
2022/02/08 04:49:28;;;;;;;3.05;0.65;;;28.70;83.00;;;;;;4961096;28;20027;-74
2022/02/08 04:52:00;;;;;;;2.30;0.63;;;28.90;81.50;;;;;;4964143;28;20030;-74
2022/02/08 04:54:35;;;;;;;3.35;0.32;;;29.10;82.20;;;;;;4972732;28;20026;-76
2022/02/08 05:43:10;;;;;;;4.45;3.72;;;27.90;86.80;;;;;;4966805;28;20173;-74
2022/02/08 05:46:02;;;;;;;4.35;0.73;;;27.70;86.10;;;;;;4966056;28;20022;-75
2022/02/08 05:48:32;;;;;;;2.65;0.60;;;27.40;86.70;;;;;;4954305;28;20079;-76
2022/02/08 05:51:04;;;;;;;2.55;0.40;;;27.40;87.40;;;;;;4958142;28;20474;-74
2022/02/08 05:53:42;;;;;;;5.95;0.52;;;27.30;87.20;;;;;;4972690;28;20035;-75
2022/02/08 05:56:14;;;;;;;3.00;0.43;;;27.10;87.60;;;;;;4968598;28;20030;-73
2022/02/08 05:58:44;;;;;;;4.28;0.73;;;27.00;88.00;;;;;;4960038;28;20034;-74
2022/02/08 06:01:11;;;;;;;1.00;0.52;;;27.00;87.90;;;;;;4968382;28;20038;-73
2022/02/08 06:03:39;;;;;;;2.33;0.82;;;27.40;87.30;;;;;;4962852;28;20046;-74
2022/02/08 06:06:06;;;;;;;3.63;0.35;;;27.70;86.70;;;;;;4961981;28;20034;-74
2022/02/08 06:08:34;;;;;;;1.63;0.30;;;27.90;86.80;;;;;;4963609;28;20098;-75
2022/02/08 06:11:05;;;;;;;1.55;0.50;;;28.00;85.80;;;;;;4961039;28;20477;-73
2022/02/08 06:13:32;;;;;;;0.55;0.40;;;28.10;85.90;;;;;;4961933;28;20026;-73
2022/02/08 06:16:03;;;;;;;4.30;0.43;;;28.20;86.80;;;;;;4962820;28;20203;-73
2022/02/08 06:18:31;;;;;;;1.58;0.68;;;28.20;86.10;;;;;;4964823;28;20096;-73
2022/02/08 06:20:59;;;;;;;3.53;0.82;;;28.20;86.20;;;;;;4963439;28;20129;-74
2022/02/08 06:23:27;;;;;;;1.23;0.40;;;28.20;87.00;;;;;;4962477;28;20402;-74
2022/02/08 06:25:55;;;;;;;1.83;0.20;;;28.00;87.90;;;;;;4966208;28;20128;-76
2022/02/08 06:28:23;;;;;;;3.97;0.82;;;27.90;88.30;;;;;;4965361;28;20197;-75
2022/02/08 06:30:52;;;;;;;4.45;0.35;;;27.80;88.40;;;;;;4957496;28;20052;-75
2022/02/08 06:33:21;;;;;;;3.20;0.40;;;27.80;89.00;;;;;;4963446;28;20101;-75
2022/02/08 06:35:48;;;;;;;0.77;0.30;;;27.60;89.70;;;;;;4961325;28;20030;-73
2022/02/08 06:38:17;;;;;;;5.03;0.80;;;27.60;90.10;;;;;;4962441;28;20046;-74
2022/02/08 06:40:49;;;;;;;4.35;0.40;;;27.80;90.20;;;;;;4962839;28;20061;-74
2022/02/08 06:43:17;;;;;;;1.77;0.45;;;27.80;90.30;;;;;;4962011;28;20482;-74
2022/02/08 06:45:44;;;;;;;1.95;0.80;;;27.50;90.70;;;;;;4962016;28;20026;-75
2022/02/08 06:48:12;;;;;;;7.78;0.60;;;27.10;91.20;;;;;;4964413;28;20058;-75
2022/02/08 06:50:40;;;;;;;3.58;0.40;;;26.80;91.70;;;;;;4962219;28;20393;-74
2022/02/08 06:53:07;;;;;;;1.85;0.10;;;26.50;92.20;;;;;;4963174;28;20030;-74
2022/02/08 06:55:34;;;;;;;4.03;0.40;;;26.40;92.50;;;;;;4962939;28;20089;-75
2022/02/08 06:58:04;;;;;;;1.25;0.38;;;26.40;92.60;;;;;;4964276;28;20106;-74
2022/02/08 07:00:42;;;;;;;3.75;0.30;;;26.60;92.70;;;;;;4960959;28;20035;-73
2022/02/08 07:03:12;;;;;;;3.53;0.50;;;26.60;92.70;;;;;;4963302;28;20339;-74
2022/02/08 07:05:40;;;;;;;5.00;1.05;;;26.40;92.80;;;;;;4962163;28;20027;-74
2022/02/08 07:08:08;;;;;;;1.48;0.30;;;26.20;93.00;;;;;;4966104;28;20034;-74
2022/02/08 07:10:36;;;;;;;0.65;0.20;;;26.00;93.20;;;;;;4966908;28;20093;-74
2022/02/08 07:13:06;;;;;;;3.45;0.40;;;25.90;93.20;;;;;;4961246;28;20054;-73
2022/02/08 07:15:34;;;;;;;2.40;0.40;;;25.90;93.30;;;;;;4961487;28;20106;-74
2022/02/08 07:18:02;;;;;;;7.40;1.42;;;26.00;93.30;;;;;;4963284;28;20061;-73
2022/02/08 07:20:34;;;;;;;1.23;0.30;;;26.10;93.20;;;;;;4960090;28;20592;-73
2022/02/08 07:23:01;;;;;;;3.35;0.90;;;26.10;93.30;;;;;;4963571;28;20077;-74
2022/02/08 07:25:29;;;;;;;8.00;0.52;;;26.00;93.40;;;;;;4962132;28;20082;-74
2022/02/08 07:27:56;;;;;;;7.43;0.95;;;25.90;93.50;;;;;;4962935;28;20027;-75
2022/02/08 07:30:23;;;;;;;1.73;0.30;;;25.70;93.50;;;;;;4966250;28;20054;-74
2022/02/08 07:32:54;;;;;;;3.80;0.40;;;25.60;93.70;;;;;;4945508;28;20027;-74
2022/02/08 07:35:30;;;;;;;1.65;0.25;;;25.50;93.90;;;;;;4960954;28;20485;-73
2022/02/08 07:38:08;;;;;;;2.97;0.45;;;25.50;93.90;;;;;;4962019;28;20118;-73
2022/02/08 07:43:05;;;;;;;3.30;0.43;;;25.60;94.10;;;;;;4962922;28;20133;-73
2022/02/08 07:45:32;;;;;;;4.20;0.40;;;25.50;94.30;;;;;;4962314;28;20085;-74
2022/02/08 07:48:00;;;;;;;2.10;0.65;;;25.40;94.50;;;;;;4962418;28;20061;-73
2022/02/08 07:50:28;;;;;;;4.53;0.50;;;25.30;94.50;;;;;;4960603;28;20023;-73
2022/02/08 07:52:55;;;;;;;2.17;1.13;;;25.20;94.60;;;;;;4963043;28;20081;-73
2022/02/08 07:55:23;;;;;;;1.35;0.20;;;25.10;94.60;;;;;;4962306;28;21228;-74
2022/02/08 07:57:51;;;;;;;3.25;0.50;;;25.10;94.60;;;;;;4963067;28;20043;-74
2022/02/08 08:00:19;;;;;;;2.88;1.00;;;25.00;94.80;;;;;;4960822;28;20034;-73
2022/02/08 08:02:46;;;;;;;3.03;0.40;;;24.90;94.90;;;;;;4961796;28;20030;-75
2022/02/08 08:05:13;;;;;;;2.53;1.23;;;24.90;95.00;;;;;;4961384;28;20035;-71
2022/02/08 08:07:41;;;;;;;3.03;0.73;;;24.90;94.80;;;;;;4963593;28;20027;-73
2022/02/08 08:10:11;;;;;;;4.22;0.28;;;24.80;95.00;;;;;;4960325;28;20138;-73
2022/02/08 08:12:45;;;;;;;1.88;0.32;;;24.90;95.00;;;;;;4961560;28;20035;-73
2022/02/08 08:15:26;;;;;;;2.72;1.05;;;24.70;95.20;;;;;;4959460;28;20426;-74
2022/02/08 08:17:58;;;;;;;0.65;0.30;;;24.50;95.30;;;;;;4970543;28;20038;-73
2022/02/08 08:20:26;;;;;;;3.72;1.05;;;24.30;95.60;;;;;;4966987;28;20042;-74
2022/02/08 08:22:53;;;;;;;0.57;0.43;;;24.20;95.90;;;;;;4970324;28;20034;-74
2022/02/08 08:25:20;;;;;;;6.55;1.02;;;24.10;96.10;;;;;;4969886;28;20053;-73
2022/02/08 08:27:48;;;;;;;2.67;0.40;;;24.00;96.30;;;;;;4974884;28;20093;-76
2022/02/08 08:30:15;;;;;;;0.85;0.38;;;24.00;96.50;;;;;;4973099;28;20054;-74
2022/02/08 08:32:43;;;;;;;1.98;0.30;;;23.90;96.50;;;;;;4958087;28;20065;-74
2022/02/08 08:35:14;;;;;;;3.38;0.50;;;23.80;96.80;;;;;;4972072;28;20078;-74
2022/02/08 08:37:44;;;;;;;2.50;0.32;;;23.80;96.80;;;;;;4974907;28;20077;-76
2022/02/08 08:43:31;;;;;;;3.58;0.65;;;23.70;96.80;;;;;;4973863;28;20481;-76
2022/02/08 08:51:32;;;;;;;2.50;0.57;;;23.50;97.20;;;;;;4972624;28;20093;-74
2022/02/08 08:54:00;;;;;;;2.75;0.50;;;23.40;97.20;;;;;;4960804;28;20030;-75
2022/02/08 08:56:27;;;;;;;3.63;0.50;;;23.40;97.30;;;;;;4972712;28;20039;-73
2022/02/08 08:58:55;;;;;;;2.00;0.50;;;23.40;97.70;;;;;;4975046;28;20398;-76
2022/02/08 09:01:23;;;;;;;5.45;0.82;;;23.40;97.80;;;;;;4972971;28;20038;-75
2022/02/08 09:03:52;;;;;;;2.25;0.55;;;23.30;98.10;;;;;;4974734;28;20375;-75
2022/02/08 09:06:19;;;;;;;2.42;0.85;;;23.20;98.10;;;;;;4973076;28;20039;-74
2022/02/08 09:08:46;;;;;;;5.97;0.30;;;23.20;98.20;;;;;;4971160;28;20041;-72
2022/02/08 09:11:21;;;;;;;7.05;0.30;;;23.10;98.10;;;;;;4961614;28;20139;-75
2022/02/08 09:13:56;;;;;;;4.55;0.73;;;23.20;98.20;;;;;;4971301;28;20106;-72
2022/02/08 09:16:31;;;;;;;2.03;0.50;;;23.10;98.30;;;;;;4970621;28;20038;-72
2022/02/08 09:29:38;;;;;;;1.65;0.40;;;22.90;98.50;;;;;;4972125;28;20057;-73
2022/02/08 09:34:52;;;;;;;2.38;0.60;;;22.90;98.60;;;;;;4964816;28;20042;-73
2022/02/08 09:37:19;;;;;;;1.80;0.20;;;22.90;98.50;;;;;;4969201;28;20022;-73
2022/02/08 09:39:50;;;;;;;2.47;0.32;;;22.80;98.50;;;;;;4971329;28;20053;-74
2022/02/08 09:42:18;;;;;;;3.13;1.05;;;22.80;98.80;;;;;;4973381;28;20058;-73
2022/02/08 09:44:45;;;;;;;2.67;0.63;;;22.80;98.70;;;;;;4970772;28;20440;-75
2022/02/08 09:47:16;;;;;;;2.90;0.98;;;22.80;98.60;;;;;;4970322;28;20218;-73
2022/02/08 09:49:52;;;;;;;1.55;0.60;;;22.70;98.80;;;;;;4969017;28;20067;-74
2022/02/08 09:52:20;;;;;;;;;;;22.70;98.80;;;;;;4972876;28;20031;-73
2022/02/08 09:54:48;;;;;;;4.25;0.40;;;22.80;98.80;;;;;;4971049;28;19910;-74
2022/02/08 09:57:16;;;;;;;3.60;0.32;;;22.70;98.80;;;;;;4970049;28;20059;-75
2022/02/08 09:59:43;;;;;;;4.78;1.92;;;22.70;98.90;;;;;;4970921;28;20089;-75
2022/02/08 10:02:17;;;;;;;2.63;0.40;;;22.70;99.00;;;;;;4972661;28;20449;-73
2022/02/08 10:04:44;;;;;;;1.48;0.20;;;22.70;99.10;;;;;;4972511;28;20085;-75
2022/02/08 10:07:13;;;;;;;2.95;0.40;;;22.60;99.00;;;;;;4972327;28;20045;-74
2022/02/08 10:09:42;;;;;;;2.50;0.57;;;22.50;99.20;;;;;;4970641;28;20090;-74
2022/02/08 10:12:17;;;;;;;3.65;0.75;;;22.50;99.20;;;;;;4970542;28;20026;-76
2022/02/08 10:21:35;;;;;;;3.35;0.38;;;22.60;99.30;;;;;;4965234;28;20050;-74
2022/02/08 10:23:22;;;;;;;2.72;0.50;;;22.70;99.10;;;;;;4968337;28;20512;-75
2022/02/08 10:26:00;;;;;;;1.90;0.57;;;22.70;99.00;;;;;;4971175;28;20478;-75
2022/02/08 10:28:59;;;;;;;1.10;0.38;;;22.70;98.90;;;;;;4971740;28;20038;-74
2022/02/08 10:39:26;;;;;;;2.67;1.15;;;22.50;99.70;;;;;;4971769;28;20126;-74
2022/02/08 10:41:54;;;;;;;1.10;0.30;;;22.40;99.90;;;;;;4970199;28;20049;-77
2022/02/08 10:44:21;;;;;;;2.17;0.40;;;22.30;99.90;;;;;;4970721;28;20035;-75
2022/02/08 10:47:01;;;;;;;1.85;0.70;;;22.30;99.90;;;;;;4969136;28;20478;-75
2022/02/08 10:49:34;;;;;;;2.88;0.60;;;22.40;99.90;;;;;;4969346;28;20138;-74
2022/02/08 10:52:05;;;;;;;2.28;0.55;;;22.40;99.90;;;;;;4970405;28;20027;-73
2022/02/08 10:54:39;;;;;;;2.10;0.60;;;22.40;99.90;;;;;;4969888;28;20374;-75
2022/02/08 10:57:16;;;;;;;5.53;0.60;;;22.30;99.90;;;;;;4971023;28;20039;-77
2022/02/08 10:59:52;;;;;;;0.93;0.20;;;22.30;99.90;;;;;;4951802;28;20062;-76
2022/02/08 11:02:28;;;;;;;1.67;0.55;;;22.20;99.90;;;;;;4969945;28;20023;-77
2022/02/08 11:05:17;;;;;;;3.13;0.57;;;22.30;99.90;;;;;;4969437;28;20125;-76
2022/02/08 11:21:41;;;;;;;4.20;0.50;;;22.00;99.90;;;;;;4969424;28;20043;-76
2022/02/08 11:24:27;;;;;;;1.75;0.40;;;22.00;99.90;;;;;;4970623;28;20485;-76
2022/02/08 11:27:05;;;;;;;2.10;0.68;;;22.00;99.90;;;;;;4970401;28;20509;-78
2022/02/08 11:29:39;;;;;;;2.33;0.40;;;21.90;99.90;;;;;;4967167;28;20043;-76
2022/02/08 11:32:36;;;;;;;1.42;0.50;;;21.90;99.90;;;;;;4968723;28;20034;-77
2022/02/08 11:46:48;;;;;;;3.20;0.60;;;21.70;99.90;;;;;;4967341;28;20109;-78
2022/02/08 12:07:51;;;;;;;1.45;0.65;;;21.20;99.90;;;;;;4966262;28;20027;-79
2022/02/08 12:32:59;;;;;;;0.85;0.40;;;20.60;99.90;;;;;;4970938;28;20700;-76
2022/02/08 13:05:57;;;;;;;2.17;0.47;;;20.00;99.90;;;;;;4953101;28;20041;-76
2022/02/08 14:04:21;;;;;;;8.98;1.30;;;19.20;99.90;;;;;;4973624;28;20117;-73
2022/02/08 14:06:59;;;;;;;1.80;0.90;;;19.10;99.90;;;;;;4972465;28;20023;-73
2022/02/08 14:14:54;;;;;;;3.63;0.88;;;19.00;99.90;;;;;;4954596;29;20454;-75
2022/02/08 14:20:15;;;;;;;3.13;0.70;;;18.90;99.90;;;;;;4971762;28;20453;-75
2022/02/08 14:25:27;;;;;;;3.70;0.80;;;18.80;99.90;;;;;;4969751;28;20042;-74
2022/02/08 14:30:47;;;;;;;5.15;0.60;;;18.70;99.90;;;;;;4971563;28;20037;-75
2022/02/08 15:06:14;;;;;;;1.20;0.50;;;18.40;99.90;;;;;;4970735;28;20034;-73
2022/02/08 15:08:41;;;;;;;1.70;0.60;;;18.30;99.90;;;;;;4963657;28;20580;-73
2022/02/08 15:11:12;;;;;;;3.13;0.80;;;18.30;99.90;;;;;;4967177;28;20042;-72
2022/02/08 15:13:48;;;;;;;1.98;0.60;;;18.20;99.90;;;;;;4958595;28;20035;-74
2022/02/08 15:16:28;;;;;;;1.48;0.60;;;18.20;99.90;;;;;;4971730;28;20042;-74
2022/02/08 15:18:56;;;;;;;5.57;0.77;;;18.20;99.90;;;;;;4953826;28;20027;-74
2022/02/08 15:21:29;;;;;;;1.83;0.50;;;18.10;99.90;;;;;;4966193;28;20379;-76
2022/02/08 15:23:57;;;;;;;1.20;0.75;;;18.10;99.90;;;;;;4972413;28;20791;-72
2022/02/08 15:26:24;;;;;;;3.40;0.85;;;18.00;99.90;;;;;;4969057;28;20490;-76
2022/02/08 15:28:52;;;;;;;1.25;0.47;;;17.90;99.90;;;;;;4952683;29;20138;-75
2022/02/08 15:31:19;;;;;;;1.17;0.65;;;17.90;99.90;;;;;;4964281;28;20031;-73
2022/02/08 15:33:47;;;;;;;3.47;0.77;;;17.90;99.90;;;;;;4971779;28;20042;-73
2022/02/08 15:36:16;;;;;;;2.33;1.05;;;17.90;99.90;;;;;;4970006;28;20034;-73
2022/02/08 15:38:53;;;;;;;1.73;0.73;;;17.90;99.90;;;;;;4970345;28;20474;-73
2022/02/08 15:41:21;;;;;;;4.50;0.80;;;17.80;99.90;;;;;;4969864;28;20069;-74
2022/02/08 15:43:50;;;;;;;6.03;0.90;;;17.80;99.90;;;;;;4954386;28;20431;-73
2022/02/08 15:46:24;;;;;;;2.05;0.55;;;17.80;99.90;;;;;;4970712;28;20035;-73
2022/02/08 15:48:53;;;;;;;1.67;0.43;;;17.70;99.90;;;;;;4971154;28;20026;-73
2022/02/08 15:51:32;;;;;;;1.10;0.73;;;17.70;99.90;;;;;;4965766;28;20042;-75
2022/02/08 15:54:46;;;;;;;3.05;0.80;;;17.70;99.90;;;;;;4970740;28;20042;-78
2022/02/08 15:57:19;;;;;;;2.78;0.55;;;17.70;99.90;;;;;;4959292;28;20141;-77
2022/02/08 16:05:57;;;;;;;4.53;1.33;;;17.70;99.90;;;;;;4905791;29;20045;-77
2022/02/08 16:08:33;;;;;;;3.28;1.05;;;17.60;99.90;;;;;;4951636;28;20059;-76
2022/02/08 16:11:31;;;;;;;3.35;0.88;;;17.70;99.90;;;;;;4969122;28;20034;-78
2022/02/08 16:14:18;;;;;;;4.93;0.60;;;17.70;99.90;;;;;;4969218;28;20099;-74
2022/02/08 16:20:01;;;;;;;2.90;0.40;;;17.60;99.90;;;;;;4926810;28;20609;-75
2022/02/08 16:23:02;;;;;;;3.22;0.73;;;17.50;99.90;;;;;;4965508;28;20073;-77
2022/02/08 16:25:39;;;;;;;0.95;0.73;;;17.50;99.90;;;;;;4968544;28;20435;-74
2022/02/08 16:58:21;;;;;;;1.27;0.45;;;17.10;99.90;;;;;;4974665;28;20042;-77
2022/02/08 17:00:49;;;;;;;4.60;0.90;;;17.00;99.90;;;;;;4972207;28;20642;-76
2022/02/08 17:03:25;;;;;;;4.32;0.55;;;16.90;99.90;;;;;;4972736;28;20473;-75
2022/02/08 17:05:52;;;;;;;3.75;0.80;;;16.90;99.90;;;;;;4972255;28;20441;-74
2022/02/08 17:08:22;;;;;;;1.42;0.57;;;16.90;99.90;;;;;;4974203;28;20023;-77
2022/02/08 17:10:52;;;;;;;5.13;0.60;;;16.80;99.90;;;;;;4964192;28;20173;-76
2022/02/08 17:13:45;;;;;;;2.63;0.55;;;16.80;99.90;;;;;;4974548;28;20418;-74
2022/02/08 17:19:13;;;;;;;5.18;0.95;;;16.80;99.90;;;;;;4974176;28;20055;-76
2022/02/08 17:34:34;;;;;;;2.72;0.63;;;16.70;99.90;;;;;;4972538;28;20047;-76
2022/02/08 17:46:58;;;;;;;5.18;0.82;;;16.70;99.90;;;;;;4920564;29;20035;-75
2022/02/08 17:49:25;;;;;;;3.65;0.80;;;16.70;99.90;;;;;;4944105;28;20613;-75
2022/02/08 17:51:52;;;;;;;3.17;0.70;;;16.60;99.90;;;;;;4970738;28;20054;-74
2022/02/08 17:54:20;;;;;;;4.40;0.82;;;16.60;99.90;;;;;;4973033;28;20039;-75
2022/02/08 17:56:47;;;;;;;2.67;0.65;;;16.50;99.90;;;;;;4972519;28;20018;-74
2022/02/08 17:59:15;;;;;;;2.63;0.68;;;16.50;99.90;;;;;;4973101;28;20030;-74
2022/02/08 18:01:42;;;;;;;4.72;0.80;;;16.40;99.90;;;;;;4970309;28;20034;-75
2022/02/08 18:04:10;;;;;;;5.55;0.60;;;16.40;99.90;;;;;;4964872;28;20066;-74
2022/02/08 18:06:37;;;;;;;3.17;1.15;;;16.40;99.90;;;;;;4971196;28;20034;-75
2022/02/08 18:09:04;;;;;;;3.17;0.73;;;16.40;99.90;;;;;;4971863;28;20114;-74
2022/02/08 18:11:38;;;;;;;4.13;0.75;;;16.30;99.90;;;;;;4970745;28;20034;-74
2022/02/08 18:14:09;;;;;;;2.70;0.68;;;16.30;99.90;;;;;;4972751;28;20063;-75
2022/02/08 18:16:39;;;;;;;1.85;0.77;;;16.30;99.90;;;;;;4969316;28;20039;-75
2022/02/08 18:19:14;;;;;;;1.67;0.90;;;16.30;99.90;;;;;;4971890;28;20049;-74
2022/02/08 18:21:57;;;;;;;5.07;1.33;;;16.30;99.90;;;;;;4969851;28;20043;-74
2022/02/08 18:24:52;;;;;;;4.35;1.23;;;16.40;99.90;;;;;;4973151;28;20026;-76
2022/02/08 18:27:29;;;;;;;2.53;0.65;;;16.50;99.90;;;;;;4969884;28;20035;-75
2022/02/08 18:57:25;;;;;;;2.60;1.55;;;16.40;99.90;;;;;;4925339;29;20044;-75
2022/02/08 19:08:39;;;;;;;1.48;0.65;;;16.10;99.90;;;;;;4972417;28;20061;-73
2022/02/08 19:14:18;;;;;;;1.73;0.57;;;16.00;99.90;;;;;;4953261;29;20815;-76
2022/02/08 19:17:37;;;;;;;2.40;0.70;;;16.00;99.90;;;;;;4966672;28;20031;-74
2022/02/08 19:22:10;;;;;;;3.70;0.60;;;16.10;99.90;;;;;;4971311;28;20122;-73
2022/02/08 19:24:37;;;;;;;1.00;0.40;;;16.20;99.90;;;;;;4971366;28;20105;-75
2022/02/08 19:27:05;;;;;;;2.50;0.70;;;16.20;99.90;;;;;;4970967;28;20508;-76
2022/02/08 19:29:36;;;;;;;1.98;0.80;;;16.30;99.90;;;;;;4970884;28;20038;-72
2022/02/08 19:32:09;;;;;;;1.13;0.50;;;16.20;99.90;;;;;;4970549;28;20054;-74
2022/02/08 19:34:37;;;;;;;3.00;0.93;;;16.20;99.90;;;;;;4971410;28;20034;-72
2022/02/08 19:37:06;;;;;;;1.55;0.60;;;16.20;99.90;;;;;;4970774;28;20113;-72
2022/02/08 19:39:39;;;;;;;7.35;0.98;;;16.20;99.90;;;;;;4971024;28;20039;-73
2022/02/08 19:42:08;;;;;;;0.98;0.70;;;16.20;99.90;;;;;;4968017;28;20455;-75
2022/02/08 19:44:37;;;;;;;1.70;0.50;;;16.10;99.90;;;;;;4970446;28;20099;-74
2022/02/08 19:47:05;;;;;;;3.70;0.70;;;16.10;99.90;;;;;;4970373;28;20385;-73
2022/02/08 19:49:33;;;;;;;2.80;0.77;;;16.10;99.90;;;;;;4971338;28;20031;-72
2022/02/08 19:52:01;;;;;;;1.98;0.57;;;16.10;99.90;;;;;;4969614;28;20027;-73
2022/02/08 19:54:34;;;;;;;1.92;1.17;;;16.20;99.90;;;;;;4970300;28;20041;-74
2022/02/08 19:57:08;;;;;;;1.90;0.55;;;16.20;99.90;;;;;;4970419;28;20031;-73
2022/02/08 19:59:39;;;;;;;2.22;0.77;;;16.20;99.90;;;;;;4970702;28;20058;-73
2022/02/08 20:02:13;;;;;;;1.58;0.70;;;16.20;99.90;;;;;;4969880;28;20490;-75
2022/02/08 20:04:45;;;;;;;2.88;0.82;;;16.20;99.90;;;;;;4970668;28;20598;-73
2022/02/08 20:07:13;;;;;;;3.90;0.95;;;16.30;99.90;;;;;;4971626;28;20478;-72
2022/02/08 20:09:41;;;;;;;1.13;0.90;;;16.40;99.90;;;;;;4969623;28;20038;-73
2022/02/08 20:12:09;;;;;;;1.33;0.93;;;16.50;99.90;;;;;;4970089;28;20154;-72
2022/02/08 20:14:36;;;;;;;1.60;0.70;;;16.60;99.90;;;;;;4971024;28;20034;-72
2022/02/08 20:17:04;;;;;;;4.20;1.05;;;16.70;99.90;;;;;;4950456;28;20506;-72
2022/02/08 20:19:32;;;;;;;2.65;0.63;;;16.70;99.90;;;;;;4970512;28;20478;-73
2022/02/08 20:22:06;;;;;;;2.17;1.48;;;16.80;99.90;;;;;;4971412;28;20030;-73
2022/02/08 20:24:33;;;;;;;2.25;1.00;;;16.80;99.90;;;;;;4963911;28;20581;-71
2022/02/08 20:29:31;;;;;;;4.35;1.38;;;17.10;99.90;;;;;;4974235;28;20030;-73
2022/02/08 20:31:59;;;;;;;4.63;1.80;;;17.20;99.90;;;;;;4973540;28;20089;-75
2022/02/08 20:34:29;;;;;;;2.85;1.30;;;17.30;99.90;;;;;;4974348;28;20051;-72
2022/02/08 20:36:58;;;;;;;3.88;1.50;;;17.30;99.90;;;;;;4973061;28;20050;-72
2022/02/08 20:39:26;;;;;;;7.93;2.28;;;17.40;99.90;;;;;;4974449;28;20169;-72